PEV107 LOWW-LSZR
Flight info
| Callsign | PEV107 |
|---|---|
| Flight time | 1h 1m |
| Altitude | 30000 |
| Route | SOVIL2B/16 LOWW/16 SOVIL DCT SITNI DCT BAGSI DCT MATIG DCT TRAUN L856 KPT KPT4H |
| Aircraft | E170/M-VGDW/C |
Departure
| Time | 2026-05-05 18:53 |
|---|---|
| Airport | Vienna International Airport (LOWW) |
Arrival
| Time | 2026-05-05 19:54 |
|---|---|
| Airport | Sankt Gallen Altenrhein Airport (LSZR) |
| Time | Latitude | Longitude | Altitude | Speed | Heading |
|---|---|---|---|---|---|
| 2026-05-05 18:53 | 48.03256 | 16.17356 | 12982 ft | 220 kts | 271° |
| 2026-05-05 18:53 | 48.03404 | 16.15164 | 13515 ft | 220 kts | 272° |
| 2026-05-05 18:53 | 48.03557 | 16.12880 | 13993 ft | 221 kts | 272° |
| 2026-05-05 18:54 | 48.03708 | 16.10585 | 14493 ft | 222 kts | 272° |
| 2026-05-05 18:54 | 48.03858 | 16.08284 | 14991 ft | 223 kts | 272° |
| 2026-05-05 18:54 | 48.04011 | 16.05971 | 15506 ft | 223 kts | 272° |
| 2026-05-05 18:54 | 48.04170 | 16.03670 | 16018 ft | 223 kts | 272° |
| 2026-05-05 18:55 | 48.04323 | 16.01371 | 16539 ft | 222 kts | 272° |
| 2026-05-05 18:55 | 48.04476 | 15.99076 | 17067 ft | 222 kts | 272° |
| 2026-05-05 18:55 | 48.04630 | 15.96782 | 17606 ft | 221 kts | 272° |
| 2026-05-05 18:55 | 48.04782 | 15.94530 | 18131 ft | 221 kts | 272° |
| 2026-05-05 18:56 | 48.04937 | 15.92251 | 18600 ft | 220 kts | 272° |
| 2026-05-05 18:56 | 48.05091 | 15.89931 | 18750 ft | 237 kts | 272° |
| 2026-05-05 18:56 | 48.05250 | 15.87405 | 18705 ft | 249 kts | 272° |
| 2026-05-05 18:56 | 48.05412 | 15.84781 | 18835 ft | 256 kts | 272° |
| 2026-05-05 18:57 | 48.05574 | 15.82077 | 18768 ft | 265 kts | 272° |
| 2026-05-05 18:57 | 48.05736 | 15.79329 | 18560 ft | 260 kts | 272° |
| 2026-05-05 18:57 | 48.05895 | 15.76637 | 18592 ft | 260 kts | 272° |
| 2026-05-05 18:57 | 48.06053 | 15.73933 | 18676 ft | 263 kts | 272° |
| 2026-05-05 18:58 | 48.06210 | 15.71202 | 18650 ft | 263 kts | 272° |
| 2026-05-05 18:58 | 48.06689 | 15.68556 | 18658 ft | 269 kts | 296° |
| 2026-05-05 18:58 | 48.08003 | 15.66529 | 18665 ft | 279 kts | 326° |
| 2026-05-05 18:58 | 48.09865 | 15.65681 | 18646 ft | 287 kts | 355° |
| 2026-05-05 18:59 | 48.11821 | 15.66267 | 18653 ft | 291 kts | 25° |
| 2026-05-05 18:59 | 48.13526 | 15.67827 | 18966 ft | 287 kts | 30° |
| 2026-05-05 18:59 | 48.15332 | 15.69210 | 18862 ft | 294 kts | 19° |
| 2026-05-05 18:59 | 48.17300 | 15.69681 | 19426 ft | 275 kts | 358° |
| 2026-05-05 19:00 | 48.19175 | 15.69632 | 20152 ft | 264 kts | 352° |
| 2026-05-05 19:00 | 48.20920 | 15.69031 | 20753 ft | 254 kts | 334° |
| 2026-05-05 19:00 | 48.22410 | 15.67727 | 21263 ft | 245 kts | 316° |
| 2026-05-05 19:00 | 48.23546 | 15.65920 | 21728 ft | 239 kts | 301° |
| 2026-05-05 19:01 | 48.24331 | 15.63695 | 22052 ft | 246 kts | 285° |
| 2026-05-05 19:01 | 48.24687 | 15.61074 | 22103 ft | 268 kts | 268° |
| 2026-05-05 19:01 | 48.24544 | 15.58168 | 22186 ft | 292 kts | 261° |
| 2026-05-05 19:01 | 48.24293 | 15.55020 | 22291 ft | 315 kts | 261° |
| 2026-05-05 19:02 | 48.24022 | 15.51638 | 22406 ft | 337 kts | 261° |
| 2026-05-05 19:02 | 48.23736 | 15.48033 | 22515 ft | 358 kts | 261° |
| 2026-05-05 19:02 | 48.23436 | 15.44229 | 22611 ft | 377 kts | 261° |
| 2026-05-05 19:02 | 48.23115 | 15.40239 | 22682 ft | 394 kts | 261° |
| 2026-05-05 19:03 | 48.22800 | 15.36105 | 22992 ft | 403 kts | 262° |
| 2026-05-05 19:03 | 48.22524 | 15.31904 | 23504 ft | 406 kts | 263° |
| 2026-05-05 19:03 | 48.22261 | 15.27682 | 24029 ft | 407 kts | 263° |
| 2026-05-05 19:03 | 48.22019 | 15.23447 | 24596 ft | 407 kts | 263° |
| 2026-05-05 19:04 | 48.21767 | 15.19212 | 25206 ft | 408 kts | 263° |
| 2026-05-05 19:04 | 48.21510 | 15.14990 | 25969 ft | 405 kts | 263° |
| 2026-05-05 19:04 | 48.21262 | 15.10800 | 26733 ft | 401 kts | 263° |
| 2026-05-05 19:04 | 48.21017 | 15.06653 | 27360 ft | 400 kts | 263° |
| 2026-05-05 19:05 | 48.20763 | 15.02504 | 27945 ft | 399 kts | 262° |
| 2026-05-05 19:05 | 48.20500 | 14.98423 | 28525 ft | 398 kts | 262° |
| 2026-05-05 19:05 | 48.20221 | 14.94308 | 29107 ft | 396 kts | 262° |
| 2026-05-05 19:05 | 48.19925 | 14.90161 | 29706 ft | 395 kts | 261° |
| 2026-05-05 19:06 | 48.19626 | 14.86182 | 29832 ft | 384 kts | 260° |
| 2026-05-05 19:06 | 48.19239 | 14.82281 | 29779 ft | 374 kts | 258° |
| 2026-05-05 19:06 | 48.18434 | 14.74648 | 29798 ft | 371 kts | 258° |
| 2026-05-05 19:07 | 48.17664 | 14.67005 | 29797 ft | 370 kts | 259° |
| 2026-05-05 19:07 | 48.16897 | 14.59375 | 29806 ft | 370 kts | 258° |
| 2026-05-05 19:08 | 48.16125 | 14.51751 | 29817 ft | 370 kts | 258° |
| 2026-05-05 19:08 | 48.15349 | 14.44143 | 29820 ft | 370 kts | 258° |
| 2026-05-05 19:09 | 48.14568 | 14.36525 | 29832 ft | 370 kts | 258° |
| 2026-05-05 19:09 | 48.13783 | 14.28925 | 29813 ft | 369 kts | 258° |
| 2026-05-05 19:10 | 48.12992 | 14.21359 | 29815 ft | 368 kts | 258° |
| 2026-05-05 19:10 | 48.12201 | 14.13801 | 29815 ft | 367 kts | 258° |
| 2026-05-05 19:11 | 48.11407 | 14.06265 | 29812 ft | 366 kts | 258° |
| 2026-05-05 19:11 | 48.10609 | 13.98746 | 29816 ft | 365 kts | 258° |
| 2026-05-05 19:12 | 48.09808 | 13.91241 | 29819 ft | 365 kts | 258° |
| 2026-05-05 19:12 | 48.09009 | 13.83802 | 29818 ft | 364 kts | 258° |
| 2026-05-05 19:13 | 48.08197 | 13.76317 | 29821 ft | 364 kts | 258° |
| 2026-05-05 19:13 | 48.07385 | 13.68845 | 29835 ft | 363 kts | 258° |
| 2026-05-05 19:14 | 48.06571 | 13.61402 | 29840 ft | 363 kts | 258° |
| 2026-05-05 19:14 | 48.05752 | 13.53953 | 29843 ft | 362 kts | 258° |
| 2026-05-05 19:15 | 48.05107 | 13.46471 | 29842 ft | 363 kts | 260° |
| 2026-05-05 19:15 | 48.04506 | 13.38992 | 29847 ft | 363 kts | 259° |
| 2026-05-05 19:16 | 48.03887 | 13.31574 | 29858 ft | 362 kts | 259° |
| 2026-05-05 19:16 | 48.03246 | 13.24097 | 29859 ft | 362 kts | 259° |
| 2026-05-05 19:17 | 48.02605 | 13.16637 | 29854 ft | 362 kts | 259° |
| 2026-05-05 19:17 | 48.01958 | 13.09182 | 29855 ft | 362 kts | 259° |
| 2026-05-05 19:18 | 48.01308 | 13.01730 | 29852 ft | 361 kts | 259° |
| 2026-05-05 19:18 | 48.00653 | 12.94294 | 29853 ft | 361 kts | 259° |
| 2026-05-05 19:19 | 47.99995 | 12.86873 | 29865 ft | 360 kts | 259° |
| 2026-05-05 19:19 | 47.99334 | 12.79459 | 29860 ft | 360 kts | 259° |
| 2026-05-05 19:20 | 47.98671 | 12.72103 | 29866 ft | 360 kts | 259° |
| 2026-05-05 19:20 | 47.98001 | 12.64709 | 29869 ft | 359 kts | 258° |
| 2026-05-05 19:21 | 47.97327 | 12.57320 | 29871 ft | 359 kts | 258° |
| 2026-05-05 19:21 | 47.96651 | 12.49954 | 29877 ft | 359 kts | 258° |
| 2026-05-05 19:22 | 47.96087 | 12.43823 | 29876 ft | 358 kts | 258° |
| 2026-05-05 19:22 | 47.95406 | 12.36489 | 29882 ft | 357 kts | 258° |
| 2026-05-05 19:23 | 47.94717 | 12.29135 | 29882 ft | 357 kts | 258° |
| 2026-05-05 19:23 | 47.94027 | 12.21797 | 29882 ft | 357 kts | 258° |
| 2026-05-05 19:24 | 47.93330 | 12.14485 | 29870 ft | 356 kts | 258° |
| 2026-05-05 19:24 | 47.92614 | 12.07162 | 29880 ft | 356 kts | 258° |
| 2026-05-05 19:25 | 47.91906 | 11.99910 | 29870 ft | 356 kts | 258° |
| 2026-05-05 19:25 | 47.91189 | 11.92628 | 29883 ft | 355 kts | 258° |
| 2026-05-05 19:26 | 47.90469 | 11.85346 | 29879 ft | 354 kts | 257° |
| 2026-05-05 19:26 | 47.89748 | 11.78098 | 29887 ft | 354 kts | 257° |
| 2026-05-05 19:27 | 47.89025 | 11.70824 | 29882 ft | 354 kts | 257° |
| 2026-05-05 19:27 | 47.88300 | 11.63572 | 29884 ft | 354 kts | 257° |
| 2026-05-05 19:28 | 47.87571 | 11.56323 | 29879 ft | 354 kts | 257° |
| 2026-05-05 19:28 | 47.86837 | 11.49068 | 29875 ft | 354 kts | 257° |
| 2026-05-05 19:29 | 47.86104 | 11.41876 | 29888 ft | 354 kts | 257° |
| 2026-05-05 19:29 | 47.85362 | 11.34635 | 29887 ft | 354 kts | 257° |
| 2026-05-05 19:30 | 47.84614 | 11.27400 | 29893 ft | 354 kts | 257° |
| 2026-05-05 19:30 | 47.84231 | 11.23735 | 29426 ft | 359 kts | 257° |
| 2026-05-05 19:30 | 47.83850 | 11.20074 | 28855 ft | 359 kts | 257° |
| 2026-05-05 19:31 | 47.83466 | 11.16398 | 28291 ft | 359 kts | 257° |
| 2026-05-05 19:31 | 47.83081 | 11.12723 | 27746 ft | 360 kts | 257° |
| 2026-05-05 19:31 | 47.82693 | 11.09037 | 27221 ft | 361 kts | 257° |
| 2026-05-05 19:31 | 47.82299 | 11.05332 | 26699 ft | 364 kts | 257° |
| 2026-05-05 19:32 | 47.81900 | 11.01602 | 26153 ft | 366 kts | 257° |
| 2026-05-05 19:32 | 47.81499 | 10.97859 | 25606 ft | 368 kts | 257° |
| 2026-05-05 19:32 | 47.81094 | 10.94094 | 25067 ft | 369 kts | 257° |
| 2026-05-05 19:32 | 47.80687 | 10.90327 | 24526 ft | 367 kts | 257° |
| 2026-05-05 19:33 | 47.80289 | 10.86637 | 23999 ft | 364 kts | 257° |
| 2026-05-05 19:33 | 47.79890 | 10.82942 | 23494 ft | 361 kts | 257° |
| 2026-05-05 19:33 | 47.79490 | 10.79264 | 22911 ft | 359 kts | 257° |
| 2026-05-05 19:33 | 47.79093 | 10.75636 | 22321 ft | 356 kts | 258° |
| 2026-05-05 19:34 | 47.78695 | 10.72003 | 21754 ft | 353 kts | 258° |
| 2026-05-05 19:34 | 47.78300 | 10.68416 | 21205 ft | 350 kts | 258° |
| 2026-05-05 19:34 | 47.77906 | 10.64837 | 20664 ft | 348 kts | 258° |
| 2026-05-05 19:35 | 47.77127 | 10.57792 | 19630 ft | 343 kts | 258° |
| 2026-05-05 19:35 | 47.76740 | 10.54305 | 19146 ft | 342 kts | 258° |
| 2026-05-05 19:35 | 47.76352 | 10.50829 | 18656 ft | 340 kts | 258° |
| 2026-05-05 19:35 | 47.75967 | 10.47379 | 18172 ft | 338 kts | 259° |
| 2026-05-05 19:36 | 47.75583 | 10.43957 | 17630 ft | 335 kts | 259° |
| 2026-05-05 19:36 | 47.75199 | 10.40538 | 17099 ft | 333 kts | 259° |
| 2026-05-05 19:36 | 47.74818 | 10.37160 | 16578 ft | 330 kts | 259° |
| 2026-05-05 19:36 | 47.74264 | 10.33882 | 16068 ft | 326 kts | 250° |
| 2026-05-05 19:37 | 47.73512 | 10.30711 | 15576 ft | 324 kts | 249° |
| 2026-05-05 19:37 | 47.72761 | 10.27599 | 15102 ft | 323 kts | 249° |
| 2026-05-05 19:37 | 47.71994 | 10.24483 | 14626 ft | 319 kts | 249° |
| 2026-05-05 19:37 | 47.71237 | 10.21440 | 14157 ft | 310 kts | 249° |
| 2026-05-05 19:38 | 47.70498 | 10.18473 | 13703 ft | 302 kts | 249° |
| 2026-05-05 19:38 | 47.69781 | 10.15577 | 13172 ft | 297 kts | 249° |
| 2026-05-05 19:38 | 47.69077 | 10.12719 | 12645 ft | 291 kts | 249° |
| 2026-05-05 19:38 | 47.68389 | 10.09930 | 12149 ft | 287 kts | 249° |
| 2026-05-05 19:39 | 47.67707 | 10.07167 | 11663 ft | 282 kts | 249° |
| 2026-05-05 19:39 | 47.67034 | 10.04455 | 11195 ft | 278 kts | 249° |
| 2026-05-05 19:39 | 47.66371 | 10.01789 | 10713 ft | 273 kts | 248° |
| 2026-05-05 19:39 | 47.65722 | 9.99169 | 10211 ft | 272 kts | 248° |
| 2026-05-05 19:40 | 47.65074 | 9.96559 | 9703 ft | 271 kts | 248° |
| 2026-05-05 19:40 | 47.64425 | 9.93956 | 9155 ft | 269 kts | 248° |
| 2026-05-05 19:40 | 47.63772 | 9.91356 | 8604 ft | 268 kts | 248° |
| 2026-05-05 19:40 | 47.63119 | 9.88768 | 8054 ft | 268 kts | 249° |
| 2026-05-05 19:41 | 47.62490 | 9.86269 | 8168 ft | 252 kts | 248° |
| 2026-05-05 19:41 | 47.61859 | 9.83752 | 8266 ft | 266 kts | 249° |
| 2026-05-05 19:41 | 47.61206 | 9.81155 | 8007 ft | 270 kts | 249° |
| 2026-05-05 19:41 | 47.60551 | 9.78555 | 7532 ft | 269 kts | 249° |
| 2026-05-05 19:42 | 47.59897 | 9.75962 | 7035 ft | 267 kts | 249° |
| 2026-05-05 19:42 | 47.59252 | 9.73408 | 6567 ft | 261 kts | 249° |
| 2026-05-05 19:42 | 47.58635 | 9.70968 | 6104 ft | 245 kts | 249° |
| 2026-05-05 19:42 | 47.58059 | 9.68690 | 5898 ft | 223 kts | 249° |
| 2026-05-05 19:43 | 47.57538 | 9.66632 | 5877 ft | 206 kts | 249° |
| 2026-05-05 19:43 | 47.57052 | 9.64718 | 6193 ft | 202 kts | 249° |
| 2026-05-05 19:43 | 47.56536 | 9.62685 | 5977 ft | 212 kts | 249° |
| 2026-05-05 19:43 | 47.56029 | 9.60688 | 5934 ft | 203 kts | 249° |
| 2026-05-05 19:44 | 47.55536 | 9.58744 | 5940 ft | 202 kts | 249° |
| 2026-05-05 19:44 | 47.55036 | 9.56775 | 5967 ft | 205 kts | 249° |
| 2026-05-05 19:44 | 47.54544 | 9.54789 | 5983 ft | 206 kts | 254° |
| 2026-05-05 19:44 | 47.54493 | 9.52708 | 5985 ft | 206 kts | 274° |
| 2026-05-05 19:45 | 47.54631 | 9.50592 | 6055 ft | 211 kts | 274° |
| 2026-05-05 19:45 | 47.54766 | 9.48397 | 6170 ft | 213 kts | 274° |
| 2026-05-05 19:45 | 47.54893 | 9.46396 | 6135 ft | 179 kts | 274° |
| 2026-05-05 19:45 | 47.55006 | 9.44689 | 6034 ft | 155 kts | 274° |
| 2026-05-05 19:46 | 47.55113 | 9.43163 | 5978 ft | 146 kts | 274° |
| 2026-05-05 19:46 | 47.55217 | 9.41647 | 5985 ft | 150 kts | 274° |
| 2026-05-05 19:46 | 47.55320 | 9.40108 | 6000 ft | 151 kts | 274° |
| 2026-05-05 19:46 | 47.55427 | 9.38551 | 6014 ft | 151 kts | 274° |
| 2026-05-05 19:47 | 47.55535 | 9.36978 | 5850 ft | 154 kts | 274° |
| 2026-05-05 19:47 | 47.55643 | 9.35407 | 5590 ft | 153 kts | 274° |
| 2026-05-05 19:47 | 47.55747 | 9.33879 | 5331 ft | 145 kts | 274° |
| 2026-05-05 19:47 | 47.55844 | 9.32435 | 5069 ft | 137 kts | 274° |
| 2026-05-05 19:48 | 47.55934 | 9.31098 | 5053 ft | 130 kts | 274° |
| 2026-05-05 19:48 | 47.56026 | 9.29738 | 5072 ft | 134 kts | 274° |
| 2026-05-05 19:48 | 47.56118 | 9.28361 | 5075 ft | 134 kts | 274° |
| 2026-05-05 19:48 | 47.56076 | 9.27000 | 5051 ft | 133 kts | 247° |
| 2026-05-05 19:49 | 47.55351 | 9.26188 | 5032 ft | 141 kts | 195° |
| 2026-05-05 19:49 | 47.54693 | 9.26344 | 5023 ft | 151 kts | 160° |
| 2026-05-05 19:49 | 47.53852 | 9.28042 | 5080 ft | 161 kts | 122° |
| 2026-05-05 19:49 | 47.53285 | 9.29469 | 5090 ft | 161 kts | 124° |
| 2026-05-05 19:50 | 47.52721 | 9.30903 | 5057 ft | 161 kts | 124° |
| 2026-05-05 19:50 | 47.52154 | 9.32331 | 5016 ft | 161 kts | 124° |
| 2026-05-05 19:50 | 47.51590 | 9.33748 | 4968 ft | 160 kts | 124° |
| 2026-05-05 19:50 | 47.51030 | 9.35161 | 4936 ft | 159 kts | 123° |
| 2026-05-05 19:51 | 47.50763 | 9.36772 | 4767 ft | 166 kts | 97° |
| 2026-05-05 19:51 | 47.50603 | 9.38448 | 4451 ft | 163 kts | 101° |
| 2026-05-05 19:51 | 47.50439 | 9.40074 | 4151 ft | 156 kts | 101° |
| 2026-05-05 19:51 | 47.50274 | 9.41647 | 3869 ft | 154 kts | 102° |
| 2026-05-05 19:52 | 47.50060 | 9.43171 | 3616 ft | 149 kts | 106° |
| 2026-05-05 19:52 | 47.49787 | 9.44632 | 3353 ft | 146 kts | 109° |
| 2026-05-05 19:52 | 47.49518 | 9.46056 | 3127 ft | 145 kts | 103° |
| 2026-05-05 19:52 | 47.49375 | 9.47490 | 2784 ft | 137 kts | 97° |
| 2026-05-05 19:53 | 47.49279 | 9.48885 | 2376 ft | 136 kts | 97° |
| 2026-05-05 19:53 | 47.49140 | 9.50276 | 1984 ft | 135 kts | 100° |
| 2026-05-05 19:53 | 47.48984 | 9.51578 | 1811 ft | 125 kts | 99° |
| 2026-05-05 19:53 | 47.48846 | 9.52854 | 1671 ft | 128 kts | 99° |
| 2026-05-05 19:54 | 47.48712 | 9.54138 | 1471 ft | 127 kts | 99° |
| 2026-05-05 19:54 | 47.48574 | 9.55396 | 1325 ft | 118 kts | 99° |
| 2026-05-05 19:54 | 47.48466 | 9.56441 | 1312 ft | 85 kts | 98° |
| 2026-05-05 19:54 | 47.48411 | 9.56978 | 1314 ft | 17 kts | 96° |
| 2026-05-05 19:55 | 47.48415 | 9.57039 | 1314 ft | 1 kts | 121° |
| 2026-05-05 19:55 | 47.48408 | 9.57038 | 1314 ft | 1 kts | 223° |
| 2026-05-05 19:55 | 47.48413 | 9.56956 | 1313 ft | 15 kts | 278° |
| 2026-05-05 19:55 | 47.48431 | 9.56770 | 1312 ft | 21 kts | 279° |
| 2026-05-05 19:56 | 47.48455 | 9.56541 | 1311 ft | 24 kts | 279° |
| 2026-05-05 19:56 | 47.48482 | 9.56289 | 1313 ft | 26 kts | 279° |
| 2026-05-05 19:56 | 47.48511 | 9.56017 | 1314 ft | 28 kts | 279° |
| 2026-05-05 19:56 | 47.48540 | 9.55730 | 1316 ft | 29 kts | 278° |
| 2026-05-05 19:57 | 47.48569 | 9.55450 | 1316 ft | 20 kts | 279° |
| 2026-05-05 19:57 | 47.48578 | 9.55373 | 1315 ft | 8 kts | 282° |
| 2026-05-05 19:57 | 47.48634 | 9.55326 | 1313 ft | 8 kts | 347° |
| 2026-05-05 19:57 | 47.48665 | 9.55265 | 1313 ft | 5 kts | 295° |
| 2026-05-05 19:58 | 47.48681 | 9.55245 | 1313 ft | 4 kts | 353° |
| 2026-05-05 19:58 | 47.48716 | 9.55250 | 1313 ft | 0 kts | 8° |